Data for 12/26/2007

Time Sea-Level Adjusted Pressure Absolute Pressure Temperature Relative Humidity Dew Point   
(mb) (inHg) (mb) (inHg) (C) (F) (%) (C) (F)
00:05 1013 29.91 842 24.86 -9.1 15.6 70 -13.6 7.5
00:10 1013 29.91 842 24.86 -9.1 15.7 70 -13.6 7.5
00:15 1013 29.91 842 24.86 -9.1 15.7 70 -13.5 7.6
00:20 1013 29.91 842 24.86 -9.2 15.5 71 -13.6 7.6
00:25 1013 29.91 842 24.86 -9.2 15.4 71 -13.6 7.5
00:30 1013 29.91 842 24.86 -9.1 15.7 70 -13.6 7.6
00:35 1013 29.91 842 24.86 -9.2 15.5 71 -13.5 7.8
00:40 1013 29.91 842 24.86 -9.2 15.4 69 -13.8 7.1
00:45 1013 29.91 842 24.86 -9.1 15.6 70 -13.6 7.5
00:50 1013 29.91 842 24.86 -9.1 15.6 69 -13.7 7.3
00:55 1013 29.91 842 24.86 -9.1 15.6 70 -13.7 7.4
01:00 1012 29.88 842 24.86 -9 15.7 69 -13.7 7.4
01:05 1012 29.88 842 24.86 -9 15.9 70 -13.6 7.6
01:10 1012 29.88 841 24.83 -9.1 15.7 71 -13.5 7.8
01:15 1012 29.88 841 24.83 -9.1 15.7 71 -13.5 7.7
01:20 1012 29.88 841 24.83 -9.1 15.7 69 -13.7 7.4
01:25 1012 29.88 841 24.83 -9 15.7 69 -13.7 7.3
01:30 1012 29.88 841 24.83 -9 15.8 69 -13.7 7.3
01:35 1012 29.88 841 24.83 -9 15.8 69 -13.6 7.4
01:40 1012 29.88 841 24.83 -8.9 16 68 -13.8 7.2
01:45 1012 29.88 841 24.83 -8.8 16.1 68 -13.6 7.4
01:50 1012 29.88 841 24.83 -8.9 16 69 -13.6 7.5
01:55 1012 29.88 841 24.83 -9 15.7 69 -13.8 7.2
02:00 1012 29.88 841 24.83 -9.1 15.7 69 -13.7 7.3
02:05 1012 29.88 841 24.83 -9.1 15.7 68 -13.9 7
02:10 1012 29.88 841 24.83 -8.9 15.9 69 -13.6 7.5
02:15 1012 29.88 842 24.86 -9 15.9 69 -13.7 7.4
02:20 1012 29.88 842 24.86 -8.9 16 68 -13.7 7.3
02:25 1012 29.88 841 24.83 -8.8 16.2 68 -13.6 7.5
02:30 1012 29.88 841 24.83 -8.6 16.4 66 -13.9 7.1
02:35 1012 29.88 842 24.86 -8.4 16.9 66 -13.6 7.5
02:40 1012 29.88 842 24.86 -8.3 17 67 -13.3 8
02:45 1012 29.88 842 24.86 -8.4 16.9 67 -13.5 7.7
02:50 1012 29.88 841 24.83 -8.5 16.8 68 -13.3 8.1
02:55 1012 29.88 841 24.83 -8.6 16.6 68 -13.5 7.8
03:00 1012 29.88 841 24.83 -8.4 16.9 66 -13.8 7.2
03:05 1012 29.88 841 24.83 -8.2 17.2 67 -13.4 7.9
03:10 1012 29.88 842 24.86 -8.3 17.1 68 -13.3 8.1
03:15 1012 29.88 842 24.86 -8.3 17 69 -13.1 8.4
03:20 1012 29.88 842 24.86 -8.4 16.8 69 -13.1 8.5
03:25 1012 29.88 841 24.83 -8.5 16.6 67 -13.5 7.7
03:30 1012 29.88 841 24.83 -8.4 16.8 70 -13 8.6
03:35 1012 29.88 841 24.83 -8.4 16.8 67 -13.5 7.8
03:40 1012 29.88 841 24.83 -8.5 16.7 69 -13.3 8.1
03:45 1012 29.88 841 24.83 -8.5 16.8 68 -13.3 8
03:50 1012 29.88 841 24.83 -8.4 16.8 66 -13.8 7.2
03:55 1012 29.88 841 24.83 -8.1 17.4 64 -13.7 7.3
04:00 1012 29.88 841 24.83 -7.7 18.1 66 -13 8.7
04:05 1012 29.88 841 24.83 -7.9 17.9 72 -12.1 10.2
04:10 1012 29.88 841 24.83 -8.4 16.9 74 -12.3 9.8
04:15 1012 29.88 841 24.83 -8.7 16.3 73 -12.7 9.2
04:20 1012 29.88 841 24.83 -8.9 16 73 -12.8 8.9
04:25 1012 29.88 841 24.83 -8.9 16 73 -12.9 8.7
04:30 1012 29.88 841 24.83 -8.8 16.1 70 -13.3 8
04:35 1012 29.88 841 24.83 -8.6 16.4 71 -13 8.6
04:40 1012 29.88 841 24.83 -8.4 16.9 72 -12.6 9.2
04:45 1012 29.88 841 24.83 -8.4 16.8 73 -12.4 9.7
04:50 1012 29.88 841 24.83 -8.6 16.5 72 -12.7 9.1
04:55 1012 29.88 841 24.83 -8.6 16.4 75 -12.3 9.8
05:00 1012 29.88 841 24.83 -9.2 15.5 79 -12.1 10.2
05:05 1012 29.88 841 24.83 -8.9 16 71 -13.2 8.3
05:10 1012 29.88 841 24.83 -8.6 16.6 75 -12.3 9.9
05:15 1012 29.88 841 24.83 -8.2 17.2 73 -12.3 9.9
05:20 1012 29.88 841 24.83 -8.2 17.3 70 -12.7 9.2
05:25 1012 29.88 841 24.83 -8 17.5 72 -12.3 9.8
05:30 1012 29.88 841 24.83 -8.1 17.4 71 -12.6 9.4
05:35 1012 29.88 841 24.83 -8.1 17.5 70 -12.7 9.2
05:40 1012 29.88 841 24.83 -7.8 17.9 70 -12.4 9.6
05:45 1012 29.88 841 24.83 -8.1 17.5 71 -12.4 9.7
05:50 1012 29.88 841 24.83 -8.2 17.3 72 -12.4 9.7
05:55 1012 29.88 841 24.83 -8.2 17.2 72 -12.4 9.7
06:00 1012 29.88 841 24.83 -8.1 17.4 73 -12.2 10.1
06:05 1012 29.88 841 24.83 -8.2 17.2 74 -12 10.4
06:10 1012 29.88 841 24.83 -8.3 17.1 75 -12 10.4
06:15 1012 29.88 841 24.83 -8.3 17.1 76 -11.8 10.8
06:20 1012 29.88 841 24.83 -8.4 16.9 77 -11.8 10.8
06:25 1012 29.88 841 24.83 -8.7 16.4 77 -12 10.5
06:30 1012 29.88 841 24.83 -8.9 16 75 -12.6 9.3
06:35 1012 29.88 841 24.83 -8.9 16 73 -12.9 8.7
06:40 1012 29.88 841 24.83 -8.7 16.4 70 -13.2 8.3
06:45 1012 29.88 841 24.83 -8.4 16.9 67 -13.5 7.7
06:50 1012 29.88 841 24.83 -8 17.5 69 -12.8 9
06:55 1012 29.88 841 24.83 -8.1 17.4 74 -11.9 10.5
07:00 1012 29.88 841 24.83 -8.4 16.9 76 -11.8 10.7
07:05 1012 29.88 841 24.83 -8.6 16.5 77 -12 10.4
07:10 1012 29.88 841 24.83 -8.8 16.2 78 -12 10.5
07:15 1012 29.88 841 24.83 -8.9 16 79 -11.9 10.6
07:20 1012 29.88 841 24.83 -8.8 16.1 80 -11.7 11
07:25 1012 29.88 841 24.83 -8.6 16.6 79 -11.6 11.2
07:30 1011 29.85 841 24.83 -8.4 17 77 -11.6 11
07:35 1011 29.85 841 24.83 -8.2 17.2 77 -11.6 11.2
07:40 1011 29.85 841 24.83 -8.1 17.4 78 -11.4 11.6
07:45 1012 29.88 841 24.83 -8.1 17.5 78 -11.3 11.6
07:50 1011 29.85 841 24.83 -8 17.5 77 -11.4 11.5
07:55 1011 29.85 841 24.83 -8 17.6 75 -11.7 10.9
08:00 1011 29.85 841 24.83 -7.9 17.7 75 -11.6 11.2
08:05 1011 29.85 841 24.83 -7.9 17.8 74 -11.7 10.9
08:10 1012 29.88 841 24.83 -7.8 18 74 -11.7 11
08:15 1012 29.88 841 24.83 -7.8 18 75 -11.4 11.4
08:20 1012 29.88 841 24.83 -7.8 17.9 76 -11.3 11.6
08:25 1012 29.88 841 24.83 -7.8 17.9 76 -11.3 11.7
08:30 1012 29.88 841 24.83 -7.8 18 76 -11.3 11.6
08:35 1012 29.88 841 24.83 -7.7 18.2 76 -11.2 11.9
08:40 1012 29.88 841 24.83 -7.6 18.3 76 -11.1 12
08:45 1012 29.88 841 24.83 -7.7 18.1 77 -11.2 11.9
08:50 1012 29.88 841 24.83 -7.7 18.1 76 -11.2 11.8
08:55 1012 29.88 841 24.83 -7.6 18.3 76 -11.2 11.9
09:00 1012 29.88 841 24.83 -7.5 18.5 75 -11.2 11.8
09:05 1012 29.88 841 24.83 -7.4 18.6 76 -10.9 12.3
09:10 1012 29.88 841 24.83 -7.1 19.2 73 -11.1 12
09:15 1012 29.88 841 24.83 -6.8 19.8 71 -11.2 11.8
09:20 1012 29.88 841 24.83 -6.5 20.4 70 -11.1 12
09:25 1012 29.88 841 24.83 -6.2 20.9 69 -11 12.2
09:30 1012 29.88 841 24.83 -6.1 21 71 -10.7 12.8
09:35 1012 29.88 841 24.83 -6.2 20.9 72 -10.5 13.1
09:40 1012 29.88 841 24.83 -6.1 21 71 -10.6 12.9
09:45 1012 29.88 841 24.83 -6.3 20.7 72 -10.4 13.2
09:50 1012 29.88 841 24.83 -6.5 20.4 72 -10.8 12.6
09:55 1012 29.88 841 24.83 -6.4 20.5 72 -10.7 12.7
10:00 1012 29.88 841 24.83 -6.2 20.8 73 -10.3 13.5
10:05 1012 29.88 841 24.83 -5.9 21.3 74 -9.9 14.1
10:10 1012 29.88 841 24.83 -5.8 21.6 72 -10.1 13.9
10:15 1012 29.88 841 24.83 -5.8 21.6 71 -10.2 13.7
10:20 1012 29.88 841 24.83 -5.9 21.3 72 -10.3 13.5
10:25 1012 29.88 841 24.83 -5.8 21.6 70 -10.4 13.3
10:30 1012 29.88 841 24.83 -5.9 21.4 68 -10.8 12.6
10:35 1012 29.88 841 24.83 -5.8 21.6 65 -11.4 11.5
10:40 1012 29.88 841 24.83 -5.4 22.3 63 -11.5 11.4
10:45 1012 29.88 841 24.83 -5 22.9 61 -11.4 11.5
10:50 1012 29.88 841 24.83 -4.7 23.5 65 -10.3 13.4
10:55 1012 29.88 841 24.83 -4.7 23.5 65 -10.4 13.4
11:00 1012 29.88 841 24.83 -4.2 24.5 57 -11.5 11.2
11:05 1012 29.88 841 24.83 -4.4 24.1 58 -11.5 11.3
11:10 1012 29.88 841 24.83 -4.1 24.6 56 -11.7 11
11:15 1012 29.88 841 24.83 -3.7 25.4 53 -12 10.4
11:20 1012 29.88 841 24.83 -3.4 25.8 51 -12.3 9.9
11:25 1012 29.88 841 24.83 -2.9 26.7 50 -12.1 10.3
11:30 1012 29.88 841 24.83 -3.1 26.5 49 -12.3 9.8
11:35 1012 29.88 841 24.83 -2.6 27.4 49 -12 10.4
11:40 1012 29.88 841 24.83 -2.2 28 46 -12.4 9.7
11:45 1012 29.88 841 24.83 -2.7 27.2 47 -12.5 9.6
11:50 1011 29.85 841 24.83 -3 26.7 47 -12.7 9.2
11:55 1011 29.85 841 24.83 -2.5 27.5 47 -12.3 9.9
12:00 1011 29.85 841 24.83 -3.1 26.5 51 -11.9 10.6
12:05 1011 29.85 841 24.83 -3.1 26.4 50 -12.1 10.2
12:10 1011 29.85 840 24.81 -3.3 26.1 50 -12.4 9.7
12:15 1011 29.85 840 24.81 -3.6 25.4 51 -12.3 9.9
12:20 1011 29.85 840 24.81 -3.5 25.7 50 -12.4 9.7
12:25 1011 29.85 840 24.81 -3.9 24.9 54 -12 10.4
12:30 1011 29.85 840 24.81 -3.7 25.4 53 -12 10.4
12:35 1011 29.85 840 24.81 -3.8 25.1 53 -12 10.3
12:40 1011 29.85 840 24.81 -3.6 25.6 53 -11.8 10.8
12:45 1011 29.85 840 24.81 -2.7 27.1 47 -12.4 9.7
12:50 1011 29.85 840 24.81 -1.5 29.2 45 -12.1 10.3
12:55 1011 29.85 840 24.81 -0.9 30.4 44 -11.8 10.8
13:00 1011 29.85 840 24.81 -1 30.3 43 -12.1 10.3
13:05 1011 29.85 840 24.81 -0.7 30.7 42 -12 10.4
13:10 1011 29.85 840 24.81 -0.4 31.2 42 -12 10.5
13:15 1011 29.85 840 24.81 -0.4 31.2 43 -11.5 11.3
13:20 1011 29.85 840 24.81 -1 30.2 44 -11.8 10.7
13:25 1011 29.85 840 24.81 -1.4 29.5 46 -11.5 11.3
13:30 1011 29.85 840 24.81 -2 28.4 50 -11.2 11.9
13:35 1011 29.85 840 24.81 -2.5 27.5 48 -11.9 10.5
13:40 1011 29.85 840 24.81 -3.3 26.1 53 -11.6 11.2
13:45 1011 29.85 840 24.81 -3.4 25.8 54 -11.6 11.2
13:50 1011 29.85 840 24.81 -2.9 26.8 49 -12.3 9.9
13:55 1011 29.85 840 24.81 -2.4 27.7 47 -12.2 10
14:00 1011 29.85 840 24.81 -2.4 27.6 50 -11.6 11.2
14:05 1011 29.85 840 24.81 -2.4 27.8 49 -11.6 11.1
14:10 1011 29.85 840 24.81 -2.4 27.7 50 -11.5 11.4
14:15 1011 29.85 840 24.81 -2.6 27.2 48 -12.2 10.1
14:20 1011 29.85 840 24.81 -2.9 26.9 48 -12.4 9.6
14:25 1011 29.85 840 24.81 -2.8 26.9 47 -12.5 9.4
14:30 1011 29.85 840 24.81 -2.9 26.8 48 -12.4 9.7
14:35 1011 29.85 840 24.81 -2.8 27 49 -12.1 10.3
14:40 1011 29.85 840 24.81 -2.7 27.2 49 -11.9 10.5
14:45 1011 29.85 840 24.81 -2.7 27.2 48 -12.3 9.9
14:50 1011 29.85 840 24.81 -3 26.7 50 -12 10.4
14:55 1011 29.85 840 24.81 -3 26.5 46 -13.2 8.3
15:00 1011 29.85 840 24.81 -3.2 26.3 48 -12.8 9
15:05 1011 29.85 840 24.81 -3.3 26.2 48 -12.8 8.9
15:10 1011 29.85 840 24.81 -3.3 26.1 50 -12.4 9.7
15:15 1011 29.85 840 24.81 -3.3 26 50 -12.5 9.6
15:20 1011 29.85 840 24.81 -3.4 25.9 53 -11.6 11.1
15:25 1011 29.85 840 24.81 -3.2 26.3 52 -11.7 10.9
15:30 1011 29.85 840 24.81 -3.2 26.3 50 -12.2 10
15:35 1011 29.85 840 24.81 -3.1 26.3 49 -12.4 9.8
15:40 1011 29.85 840 24.81 -3.4 25.9 54 -11.4 11.4
15:45 1011 29.85 840 24.81 -4.2 24.4 57 -11.5 11.4
15:50 1011 29.85 841 24.83 -4.1 24.6 56 -11.6 11.1
15:55 1011 29.85 841 24.83 -4 24.8 57 -11.3 11.6
16:00 1011 29.85 841 24.83 -4 24.9 58 -11.1 12
16:05 1011 29.85 841 24.83 -4 24.8 57 -11.2 11.8
16:10 1011 29.85 840 24.81 -4 24.8 55 -11.7 10.9
16:15 1011 29.85 840 24.81 -4.1 24.6 55 -11.8 10.7
16:20 1011 29.85 841 24.83 -4.1 24.6 57 -11.5 11.3
16:25 1011 29.85 841 24.83 -4.5 24 58 -11.5 11.4
16:30 1011 29.85 841 24.83 -4.9 23.2 61 -11.3 11.6
16:35 1011 29.85 841 24.83 -5.3 22.5 66 -10.8 12.6
16:40 1011 29.85 841 24.83 -5.4 22.3 67 -10.6 12.8
16:45 1011 29.85 841 24.83 -5.3 22.5 67 -10.5 13
16:50 1011 29.85 841 24.83 -5.1 22.8 66 -10.4 13.2
16:55 1011 29.85 841 24.83 -5.1 22.9 65 -10.6 12.9
17:00 1011 29.85 841 24.83 -5 23 62 -11.1 12
17:05 1011 29.85 841 24.83 -5 22.9 60 -11.7 11
17:10 1011 29.85 841 24.83 -5.1 22.8 59 -12 10.4
17:15 1011 29.85 841 24.83 -5.1 22.9 59 -12 10.4
17:20 1011 29.85 841 24.83 -5.2 22.7 60 -11.8 10.7
17:25 1011 29.85 841 24.83 -5.2 22.7 59 -11.9 10.5
17:30 1011 29.85 841 24.83 -5.1 22.8 57 -12.4 9.8
17:35 1011 29.85 841 24.83 -4.9 23.2 58 -12 10.4
17:40 1011 29.85 841 24.83 -4.9 23.1 58 -12 10.5
17:45 1011 29.85 841 24.83 -5.1 22.9 59 -12 10.4
17:50 1011 29.85 841 24.83 -5.2 22.7 60 -11.7 11
17:55 1012 29.88 841 24.83 -5.2 22.6 61 -11.6 11
18:00 1012 29.88 841 24.83 -5.2 22.7 62 -11.3 11.6
18:05 1012 29.88 841 24.83 -5.1 22.8 62 -11.3 11.7
18:10 1012 29.88 841 24.83 -5.1 22.7 63 -11.1 12
18:15 1012 29.88 841 24.83 -5.1 22.8 64 -11 12.3
18:20 1012 29.88 841 24.83 -5.1 22.9 63 -11.1 12
18:25 1012 29.88 841 24.83 -5 23 64 -10.8 12.6
18:30 1012 29.88 841 24.83 -4.9 23.2 64 -10.8 12.6
18:35 1012 29.88 841 24.83 -4.9 23.2 63 -10.8 12.6
18:40 1012 29.88 841 24.83 -4.8 23.4 63 -10.8 12.5
18:45 1012 29.88 841 24.83 -4.8 23.3 63 -10.8 12.6
18:50 1012 29.88 841 24.83 -5 23 66 -10.5 13.2
18:55 1012 29.88 841 24.83 -5.3 22.5 69 -10.2 13.7
19:00 1012 29.88 841 24.83 -5.3 22.4 70 -10 14.1
19:05 1012 29.88 841 24.83 -5.3 22.4 70 -10 14
19:10 1012 29.88 841 24.83 -5.4 22.4 70 -9.9 14.1
19:15 1011 29.85 841 24.83 -5.5 22 74 -9.4 15.1
19:20 1011 29.85 841 24.83 -5.8 21.5 77 -9.3 15.3
19:25 1011 29.85 841 24.83 -6.1 21 79 -9.1 15.6
19:30 1011 29.85 841 24.83 -6.3 20.7 82 -8.9 15.9
19:35 1011 29.85 841 24.83 -6.5 20.4 83 -8.9 15.9
19:40 1011 29.85 841 24.83 -6.5 20.2 84 -8.9 16
19:45 1011 29.85 841 24.83 -6.6 20 85 -8.8 16.2
19:50 1011 29.85 841 24.83 -6.7 19.9 85 -8.9 16
19:55 1011 29.85 841 24.83 -6.8 19.8 84 -9 15.7
20:00 1011 29.85 841 24.83 -6.9 19.7 84 -9.2 15.5
20:05 1011 29.85 841 24.83 -6.9 19.6 83 -9.2 15.4
20:10 1011 29.85 841 24.83 -6.7 19.9 82 -9.3 15.3
20:15 1011 29.85 841 24.83 -6.4 20.4 77 -9.9 14.3
20:20 1011 29.85 841 24.83 -6.1 21.1 74 -10 14
20:25 1011 29.85 841 24.83 -5.9 21.4 75 -9.6 14.6
20:30 1011 29.85 841 24.83 -5.8 21.5 75 -9.6 14.7
20:35 1011 29.85 841 24.83 -5.7 21.7 67 -10.8 12.5
20:40 1011 29.85 841 24.83 -5.8 21.5 67 -10.9 12.3
20:45 1011 29.85 841 24.83 -5.9 21.5 64 -11.5 11.2
20:50 1011 29.85 841 24.83 -5.8 21.6 64 -11.6 11.1
20:55 1011 29.85 841 24.83 -5.8 21.5 64 -11.5 11.2
21:00 1011 29.85 841 24.83 -5.7 21.7 61 -12.2 10.1
21:05 1011 29.85 841 24.83 -5.6 21.9 61 -12 10.3
21:10 1011 29.85 841 24.83 -5.7 21.8 62 -11.8 10.8
21:15 1011 29.85 841 24.83 -5.7 21.7 62 -11.8 10.8
21:20 1011 29.85 841 24.83 -5.7 21.8 63 -11.7 11
21:25 1012 29.88 841 24.83 -5.7 21.8 61 -12 10.4
21:30 1012 29.88 841 24.83 -5.8 21.6 63 -11.8 10.7
21:35 1012 29.88 841 24.83 -5.9 21.3 62 -12.1 10.3
21:40 1012 29.88 841 24.83 -6 21.2 62 -12 10.3
21:45 1012 29.88 841 24.83 -6.1 21 63 -12.1 10.3
21:50 1012 29.88 841 24.83 -6.2 20.9 63 -12.1 10.3
21:55 1012 29.88 841 24.83 -6.3 20.7 65 -11.8 10.8
22:00 1012 29.88 841 24.83 -6.4 20.5 66 -11.7 10.9
22:05 1012 29.88 841 24.83 -6.5 20.3 64 -12.1 10.2
22:10 1012 29.88 841 24.83 -6.5 20.4 65 -12 10.4
22:15 1012 29.88 841 24.83 -6.5 20.4 63 -12.4 9.7
22:20 1012 29.88 841 24.83 -6.4 20.6 62 -12.5 9.5
22:25 1012 29.88 841 24.83 -6.2 20.8 61 -12.5 9.4
22:30 1012 29.88 841 24.83 -6.4 20.5 62 -12.5 9.4
22:35 1012 29.88 841 24.83 -6.3 20.7 62 -12.4 9.8
22:40 1012 29.88 841 24.83 -6.2 20.9 63 -12.1 10.2
22:45 1012 29.88 841 24.83 -6.2 20.8 63 -12.2 10
22:50 1012 29.88 841 24.83 -6.3 20.7 63 -12.3 9.9
22:55 1012 29.88 841 24.83 -6.3 20.7 64 -12.1 10.2
23:00 1012 29.88 841 24.83 -6.3 20.6 64 -12 10.4
23:05 1012 29.88 841 24.83 -6.6 20.1 66 -12 10.4
23:10 1012 29.88 841 24.83 -6.6 20.1 65 -12.1 10.3
23:15 1012 29.88 841 24.83 -6.7 20 67 -11.8 10.8
23:20 1012 29.88 841 24.83 -6.7 20 65 -12.2 10.1
23:25 1012 29.88 841 24.83 -6.9 19.7 65 -12.3 9.8
23:30 1012 29.88 841 24.83 -6.7 20 63 -12.5 9.5
23:35 1012 29.88 841 24.83 -6.6 20.1 64 -12.3 9.8
23:40 1012 29.88 841 24.83 -6.5 20.3 65 -11.9 10.5
23:45 1012 29.88 841 24.83 -6.5 20.3 63 -12.3 9.8
23:50 1012 29.88 841 24.83 -6.5 20.3 64 -12.3 9.9
23:55 1012 29.88 841 24.83 -6.5 20.3 65 -12 10.4
24:00 1012 29.88 841 24.83 -6.7 19.9 65 -12.2 10